sensor_id;sensor_type;location;lat;lon;timestamp;pressure;altitude;pressure_sealevel;temperature;humidity
84387;BME280;74580;47.078;15.446;2024-03-22T00:01:54;97906.69;;;21.49;33.00
84387;BME280;74580;47.078;15.446;2024-03-22T00:04:19;97909.41;;;21.49;32.96
84387;BME280;74580;47.078;15.446;2024-03-22T00:06:49;97903.56;;;21.47;33.21
84387;BME280;74580;47.078;15.446;2024-03-22T00:09:17;97898.53;;;21.49;33.28
84387;BME280;74580;47.078;15.446;2024-03-22T00:11:43;97900.81;;;21.47;33.15
84387;BME280;74580;47.078;15.446;2024-03-22T00:14:09;97900.50;;;21.48;33.20
84387;BME280;74580;47.078;15.446;2024-03-22T00:16:35;97903.09;;;21.45;33.24
84387;BME280;74580;47.078;15.446;2024-03-22T00:19:01;97898.13;;;21.47;33.15
84387;BME280;74580;47.078;15.446;2024-03-22T00:21:26;97899.25;;;21.46;33.08
84387;BME280;74580;47.078;15.446;2024-03-22T00:23:53;97910.47;;;21.44;33.39
84387;BME280;74580;47.078;15.446;2024-03-22T00:26:18;97909.66;;;21.44;33.24
84387;BME280;74580;47.078;15.446;2024-03-22T00:28:44;97901.84;;;21.42;33.37
84387;BME280;74580;47.078;15.446;2024-03-22T00:31:10;97910.81;;;21.43;33.25
84387;BME280;74580;47.078;15.446;2024-03-22T00:33:36;97909.22;;;21.42;33.20
84387;BME280;74580;47.078;15.446;2024-03-22T00:36:02;97909.22;;;21.42;33.16
84387;BME280;74580;47.078;15.446;2024-03-22T00:38:27;97907.63;;;21.41;33.27
84387;BME280;74580;47.078;15.446;2024-03-22T00:40:53;97899.47;;;21.41;33.29
84387;BME280;74580;47.078;15.446;2024-03-22T00:43:19;97911.50;;;21.40;33.25
84387;BME280;74580;47.078;15.446;2024-03-22T00:45:45;97904.91;;;21.41;33.38
84387;BME280;74580;47.078;15.446;2024-03-22T00:48:10;97909.22;;;21.42;33.70
84387;BME280;74580;47.078;15.446;2024-03-22T00:50:35;97913.06;;;21.41;33.31
84387;BME280;74580;47.078;15.446;2024-03-22T00:53:01;97917.38;;;21.42;33.31
84387;BME280;74580;47.078;15.446;2024-03-22T00:55:28;97918.97;;;21.43;33.24
84387;BME280;74580;47.078;15.446;2024-03-22T00:57:53;97915.44;;;21.42;33.25
84387;BME280;74580;47.078;15.446;2024-03-22T01:00:19;97911.63;;;21.43;33.43
84387;BME280;74580;47.078;15.446;2024-03-22T01:02:45;97918.97;;;21.43;33.31
84387;BME280;74580;47.078;15.446;2024-03-22T01:05:10;97911.94;;;21.42;33.26
84387;BME280;74580;47.078;15.446;2024-03-22T01:07:36;97911.63;;;21.43;33.09
84387;BME280;74580;47.078;15.446;2024-03-22T01:10:03;97915.91;;;21.44;33.39
84387;BME280;74580;47.078;15.446;2024-03-22T01:12:28;97909.66;;;21.44;33.21
84387;BME280;74580;47.078;15.446;2024-03-22T01:14:54;97919.78;;;21.43;33.18
84387;BME280;74580;47.078;15.446;2024-03-22T01:17:19;97909.66;;;21.44;33.18
84387;BME280;74580;47.078;15.446;2024-03-22T01:19:45;97910.47;;;21.44;32.91
84387;BME280;74580;47.078;15.446;2024-03-22T01:22:10;97913.19;;;21.44;33.37
84387;BME280;74580;47.078;15.446;2024-03-22T01:24:35;97913.19;;;21.44;33.25
84387;BME280;74580;47.078;15.446;2024-03-22T01:27:00;97911.25;;;21.45;33.28
84387;BME280;74580;47.078;15.446;2024-03-22T01:29:26;97913.97;;;21.45;33.31
84387;BME280;74580;47.078;15.446;2024-03-22T01:31:55;97910.81;;;21.43;33.16
84387;BME280;74580;47.078;15.446;2024-03-22T01:34:20;97913.53;;;21.43;33.24
84387;BME280;74580;47.078;15.446;2024-03-22T01:36:46;97907.28;;;21.42;33.32
84387;BME280;74580;47.078;15.446;2024-03-22T01:39:11;97910.13;;;21.46;33.17
84387;BME280;74580;47.078;15.446;2024-03-22T01:41:36;97910.91;;;21.46;33.16
84387;BME280;74580;47.078;15.446;2024-03-22T01:44:02;97909.31;;;21.45;33.35
84387;BME280;74580;47.078;15.446;2024-03-22T01:46:27;97905.38;;;21.43;33.32
84387;BME280;74580;47.078;15.446;2024-03-22T01:48:53;97910.47;;;21.44;33.17
84387;BME280;74580;47.078;15.446;2024-03-22T01:51:18;97912.72;;;21.42;33.33
84387;BME280;74580;47.078;15.446;2024-03-22T01:53:44;97898.03;;;21.43;33.31
84387;BME280;74580;47.078;15.446;2024-03-22T01:56:10;97903.81;;;21.42;33.48
84387;BME280;74580;47.078;15.446;2024-03-22T01:58:36;97902.66;;;21.43;33.28
84387;BME280;74580;47.078;15.446;2024-03-22T02:01:01;97893.69;;;21.42;33.30
84387;BME280;74580;47.078;15.446;2024-03-22T02:03:27;97891.78;;;21.43;33.24
84387;BME280;74580;47.078;15.446;2024-03-22T02:05:53;97894.50;;;21.43;33.07
84387;BME280;74580;47.078;15.446;2024-03-22T02:08:19;97889.06;;;21.43;33.27
84387;BME280;74580;47.078;15.446;2024-03-22T02:10:44;97885.19;;;21.44;33.18
84387;BME280;74580;47.078;15.446;2024-03-22T02:13:10;97874.66;;;21.42;33.25
84387;BME280;74580;47.078;15.446;2024-03-22T02:15:35;97875.47;;;21.43;33.16
84387;BME280;74580;47.078;15.446;2024-03-22T02:18:01;97881.72;;;21.43;33.47
84387;BME280;74580;47.078;15.446;2024-03-22T02:20:26;97887.16;;;21.43;33.43
84387;BME280;74580;47.078;15.446;2024-03-22T02:22:51;97878.19;;;21.43;33.24
84387;BME280;74580;47.078;15.446;2024-03-22T02:25:17;97883.63;;;21.43;33.41
84387;BME280;74580;47.078;15.446;2024-03-22T02:27:43;97880.91;;;21.43;33.28
84387;BME280;74580;47.078;15.446;2024-03-22T02:30:08;97879.34;;;21.42;33.16
84387;BME280;74580;47.078;15.446;2024-03-22T02:32:34;97876.63;;;21.42;33.41
84387;BME280;74580;47.078;15.446;2024-03-22T02:34:59;97875.47;;;21.43;33.29
84387;BME280;74580;47.078;15.446;2024-03-22T02:37:25;97883.63;;;21.43;33.25
84387;BME280;74580;47.078;15.446;2024-03-22T02:39:50;97873.91;;;21.42;33.20
84387;BME280;74580;47.078;15.446;2024-03-22T02:42:15;97869.25;;;21.42;32.98
84387;BME280;74580;47.078;15.446;2024-03-22T02:44:41;97875.47;;;21.43;33.04
84387;BME280;74580;47.078;15.446;2024-03-22T02:47:11;97877.72;;;21.41;33.55
84387;BME280;74580;47.078;15.446;2024-03-22T02:49:40;97875.47;;;21.43;33.02
84387;BME280;74580;47.078;15.446;2024-03-22T02:52:07;97880.91;;;21.43;33.13
84387;BME280;74580;47.078;15.446;2024-03-22T02:54:32;97887.16;;;21.43;33.13
84387;BME280;74580;47.078;15.446;2024-03-22T02:56:57;97875.47;;;21.43;33.25
84387;BME280;74580;47.078;15.446;2024-03-22T02:59:26;97873.56;;;21.43;33.27
84387;BME280;74580;47.078;15.446;2024-03-22T03:01:52;97877.06;;;21.44;33.36
84387;BME280;74580;47.078;15.446;2024-03-22T03:04:17;97873.19;;;21.45;33.01
84387;BME280;74580;47.078;15.446;2024-03-22T03:06:43;97874.31;;;21.44;33.33
84387;BME280;74580;47.078;15.446;2024-03-22T03:09:09;97867.75;;;21.45;32.99
84387;BME280;74580;47.078;15.446;2024-03-22T03:11:36;97856.09;;;21.44;33.04
84387;BME280;74580;47.078;15.446;2024-03-22T03:14:01;97858.03;;;21.44;33.13
84387;BME280;74580;47.078;15.446;2024-03-22T03:16:26;97857.25;;;21.43;33.24
84387;BME280;74580;47.078;15.446;2024-03-22T03:18:52;97859.97;;;21.43;33.11
84387;BME280;74580;47.078;15.446;2024-03-22T03:21:17;97850.31;;;21.46;33.27
84387;BME280;74580;47.078;15.446;2024-03-22T03:23:43;97844.78;;;21.42;33.15
84387;BME280;74580;47.078;15.446;2024-03-22T03:26:08;97848.63;;;21.41;33.27
84387;BME280;74580;47.078;15.446;2024-03-22T03:28:33;97841.28;;;21.42;33.22
84387;BME280;74580;47.078;15.446;2024-03-22T03:30:59;97845.13;;;21.41;33.36
84387;BME280;74580;47.078;15.446;2024-03-22T03:33:24;97852.94;;;21.42;33.15
84387;BME280;74580;47.078;15.446;2024-03-22T03:35:49;97855.66;;;21.42;33.10
84387;BME280;74580;47.078;15.446;2024-03-22T03:38:15;97853.72;;;21.43;33.05
84387;BME280;74580;47.078;15.446;2024-03-22T03:40:40;97847.84;;;21.41;33.19
84387;BME280;74580;47.078;15.446;2024-03-22T03:43:05;97850.22;;;21.42;33.01
84387;BME280;74580;47.078;15.446;2024-03-22T03:45:31;97850.22;;;21.42;33.27
84387;BME280;74580;47.078;15.446;2024-03-22T03:47:58;97852.94;;;21.42;33.22
84387;BME280;74580;47.078;15.446;2024-03-22T03:50:24;97850.22;;;21.42;33.00
84387;BME280;74580;47.078;15.446;2024-03-22T03:52:49;97852.50;;;21.40;32.89
84387;BME280;74580;47.078;15.446;2024-03-22T03:55:15;97852.50;;;21.40;33.20
84387;BME280;74580;47.078;15.446;2024-03-22T03:57:40;97850.94;;;21.39;33.16
84387;BME280;74580;47.078;15.446;2024-03-22T04:00:06;97850.94;;;21.39;33.30
84387;BME280;74580;47.078;15.446;2024-03-22T04:02:32;97859.50;;;21.41;33.07
84387;BME280;74580;47.078;15.446;2024-03-22T04:04:57;97856.78;;;21.41;33.25
84387;BME280;74580;47.078;15.446;2024-03-22T04:07:22;97853.72;;;21.43;33.05
84387;BME280;74580;47.078;15.446;2024-03-22T04:09:48;97848.63;;;21.41;33.13
84387;BME280;74580;47.078;15.446;2024-03-22T04:12:13;97849.44;;;21.42;33.40
84387;BME280;74580;47.078;15.446;2024-03-22T04:14:38;97849.44;;;21.42;33.06
84387;BME280;74580;47.078;15.446;2024-03-22T04:17:04;97849.44;;;21.42;33.33
84387;BME280;74580;47.078;15.446;2024-03-22T04:19:29;97848.63;;;21.41;33.04
84387;BME280;74580;47.078;15.446;2024-03-22T04:21:54;97848.63;;;21.41;33.18
84387;BME280;74580;47.078;15.446;2024-03-22T04:24:20;97845.56;;;21.43;33.17
84387;BME280;74580;47.078;15.446;2024-03-22T04:26:45;97851.00;;;21.43;33.04
84387;BME280;74580;47.078;15.446;2024-03-22T04:29:11;97842.84;;;21.43;33.11
84387;BME280;74580;47.078;15.446;2024-03-22T04:31:36;97851.81;;;21.43;33.19
84387;BME280;74580;47.078;15.446;2024-03-22T04:34:02;97846.72;;;21.42;32.73
84387;BME280;74580;47.078;15.446;2024-03-22T04:36:29;97838.56;;;21.42;32.99
84387;BME280;74580;47.078;15.446;2024-03-22T04:38:55;97845.91;;;21.41;33.27
84387;BME280;74580;47.078;15.446;2024-03-22T04:41:20;97849.44;;;21.42;33.23
84387;BME280;74580;47.078;15.446;2024-03-22T04:43:45;97851.34;;;21.41;33.26
84387;BME280;74580;47.078;15.446;2024-03-22T04:46:11;97868.47;;;21.42;33.08
84387;BME280;74580;47.078;15.446;2024-03-22T04:48:36;97851.69;;;21.40;33.10
84387;BME280;74580;47.078;15.446;2024-03-22T04:51:01;97867.22;;;21.39;33.28
84387;BME280;74580;47.078;15.446;2024-03-22T04:53:27;97861.00;;;21.39;33.13
84387;BME280;74580;47.078;15.446;2024-03-22T04:55:52;97870.38;;;21.41;33.31
84387;BME280;74580;47.078;15.446;2024-03-22T04:58:19;97865.28;;;21.40;33.27
84387;BME280;74580;47.078;15.446;2024-03-22T05:00:46;97874.59;;;21.39;33.35
84387;BME280;74580;47.078;15.446;2024-03-22T05:03:12;97855.91;;;21.37;33.31
84387;BME280;74580;47.078;15.446;2024-03-22T05:05:38;97875.72;;;21.38;33.45
84387;BME280;74580;47.078;15.446;2024-03-22T05:08:03;97877.97;;;21.36;33.23
84387;BME280;74580;47.078;15.446;2024-03-22T05:10:32;97877.22;;;21.35;33.38
84387;BME280;74580;47.078;15.446;2024-03-22T05:12:58;97874.13;;;21.37;32.91
84387;BME280;74580;47.078;15.446;2024-03-22T05:15:24;97873.34;;;21.36;33.44
84387;BME280;74580;47.078;15.446;2024-03-22T05:17:53;97876.41;;;21.35;33.33
84387;BME280;74580;47.078;15.446;2024-03-22T05:20:21;97872.22;;;21.37;33.18
84387;BME280;74580;47.078;15.446;2024-03-22T05:22:47;97872.22;;;21.37;33.17
84387;BME280;74580;47.078;15.446;2024-03-22T05:25:13;97879.56;;;21.37;33.15
84387;BME280;74580;47.078;15.446;2024-03-22T05:27:40;97874.50;;;21.35;33.11
84387;BME280;74580;47.078;15.446;2024-03-22T05:30:06;97867.13;;;21.36;33.44
84387;BME280;74580;47.078;15.446;2024-03-22T05:32:32;97869.81;;;21.36;33.21
84387;BME280;74580;47.078;15.446;2024-03-22T05:34:58;97873.69;;;21.35;33.46
84387;BME280;74580;47.078;15.446;2024-03-22T05:37:23;97877.97;;;21.36;33.33
84387;BME280;74580;47.078;15.446;2024-03-22T05:39:49;97872.53;;;21.36;33.33
84387;BME280;74580;47.078;15.446;2024-03-22T05:42:14;97873.34;;;21.36;33.33
84387;BME280;74580;47.078;15.446;2024-03-22T05:44:39;97881.84;;;21.35;33.24
84387;BME280;74580;47.078;15.446;2024-03-22T05:47:05;97870.63;;;21.36;32.90
84387;BME280;74580;47.078;15.446;2024-03-22T05:49:30;97862.81;;;21.35;33.30
84387;BME280;74580;47.078;15.446;2024-03-22T05:51:55;97865.19;;;21.36;33.19
84387;BME280;74580;47.078;15.446;2024-03-22T05:54:21;97861.25;;;21.34;33.34
84387;BME280;74580;47.078;15.446;2024-03-22T05:56:46;97860.09;;;21.35;33.37
84387;BME280;74580;47.078;15.446;2024-03-22T05:59:12;97847.31;;;21.35;33.24
84387;BME280;74580;47.078;15.446;2024-03-22T06:01:37;97856.25;;;21.36;33.23
84387;BME280;74580;47.078;15.446;2024-03-22T06:04:06;97858.97;;;21.36;33.35
84387;BME280;74580;47.078;15.446;2024-03-22T06:06:35;97850.03;;;21.35;33.19
84387;BME280;74580;47.078;15.446;2024-03-22T06:09:01;97865.97;;;21.37;33.26
84387;BME280;74580;47.078;15.446;2024-03-22T06:11:30;97849.31;;;21.38;33.33
84387;BME280;74580;47.078;15.446;2024-03-22T06:13:55;97860.19;;;21.38;33.11
84387;BME280;74580;47.078;15.446;2024-03-22T06:16:20;97862.56;;;21.40;33.24
84387;BME280;74580;47.078;15.446;2024-03-22T06:18:46;97853.28;;;21.41;33.09
84387;BME280;74580;47.078;15.446;2024-03-22T06:21:11;97853.72;;;21.43;33.21
84387;BME280;74580;47.078;15.446;2024-03-22T06:23:39;97854.06;;;21.41;33.10
84387;BME280;74580;47.078;15.446;2024-03-22T06:26:04;97849.44;;;21.42;32.99
84387;BME280;74580;47.078;15.446;2024-03-22T06:28:30;97848.28;;;21.43;32.96
84387;BME280;74580;47.078;15.446;2024-03-22T06:30:55;97856.44;;;21.43;33.09
84387;BME280;74580;47.078;15.446;2024-03-22T06:33:21;97849.88;;;21.44;33.15
84387;BME280;74580;47.078;15.446;2024-03-22T06:35:46;97843.28;;;21.45;33.18
84387;BME280;74580;47.078;15.446;2024-03-22T06:38:12;97845.31;;;21.48;33.01
84387;BME280;74580;47.078;15.446;2024-03-22T06:40:38;97844.63;;;21.51;32.93
84387;BME280;74580;47.078;15.446;2024-03-22T06:43:03;97838.41;;;21.50;33.05
84387;BME280;74580;47.078;15.446;2024-03-22T06:45:28;97843.81;;;21.50;33.15
84387;BME280;74580;47.078;15.446;2024-03-22T06:47:54;97839.53;;;21.49;33.14
84387;BME280;74580;47.078;15.446;2024-03-22T06:50:20;97836.03;;;21.49;33.15
84387;BME280;74580;47.078;15.446;2024-03-22T06:52:55;97848.94;;;21.52;33.04
84387;BME280;74580;47.078;15.446;2024-03-22T06:55:20;97845.44;;;21.51;33.00
84387;BME280;74580;47.078;15.446;2024-03-22T06:57:47;97847.00;;;21.52;33.14
84387;BME280;74580;47.078;15.446;2024-03-22T07:00:13;97848.94;;;21.52;33.26
84387;BME280;74580;47.078;15.446;2024-03-22T07:02:39;97844.28;;;21.52;33.17
84387;BME280;74580;47.078;15.446;2024-03-22T07:05:08;97850.50;;;21.53;33.10
84387;BME280;74580;47.078;15.446;2024-03-22T07:07:37;97852.44;;;21.52;32.88
84387;BME280;74580;47.078;15.446;2024-03-22T07:10:03;97853.22;;;21.53;33.02
84387;BME280;74580;47.078;15.446;2024-03-22T07:12:30;97845.44;;;21.51;32.82
84387;BME280;74580;47.078;15.446;2024-03-22T07:14:56;97851.66;;;21.52;33.45
84387;BME280;74580;47.078;15.446;2024-03-22T07:17:21;97843.94;;;21.54;32.91
84387;BME280;74580;47.078;15.446;2024-03-22T07:19:51;97846.31;;;21.55;32.98
84387;BME280;74580;47.078;15.446;2024-03-22T07:22:17;97850.16;;;21.54;33.13
84387;BME280;74580;47.078;15.446;2024-03-22T07:24:42;97846.31;;;21.55;33.08
84387;BME280;74580;47.078;15.446;2024-03-22T07:27:08;97845.88;;;21.53;33.15
84387;BME280;74580;47.078;15.446;2024-03-22T07:29:33;97851.38;;;21.57;33.09
84387;BME280;74580;47.078;15.446;2024-03-22T07:31:58;97852.19;;;21.57;33.26
84387;BME280;74580;47.078;15.446;2024-03-22T07:34:24;97850.63;;;21.56;33.01
84387;BME280;74580;47.078;15.446;2024-03-22T07:36:49;97853.75;;;21.58;32.82
84387;BME280;74580;47.078;15.446;2024-03-22T07:39:15;97842.13;;;21.58;33.01
84387;BME280;74580;47.078;15.446;2024-03-22T07:41:40;97849.47;;;21.57;33.13
84387;BME280;74580;47.078;15.446;2024-03-22T07:44:05;97842.53;;;21.60;33.05
84387;BME280;74580;47.078;15.446;2024-03-22T07:46:31;97847.97;;;21.60;33.09
84387;BME280;74580;47.078;15.446;2024-03-22T07:48:56;97834.38;;;21.60;32.97
84387;BME280;74580;47.078;15.446;2024-03-22T07:51:22;97833.63;;;21.59;33.12
84387;BME280;74580;47.078;15.446;2024-03-22T07:53:47;97830.91;;;21.59;33.03
84387;BME280;74580;47.078;15.446;2024-03-22T07:56:12;97831.31;;;21.61;33.13
84387;BME280;74580;47.078;15.446;2024-03-22T07:58:38;97837.56;;;21.62;32.88
84387;BME280;74580;47.078;15.446;2024-03-22T08:01:04;97837.22;;;21.63;33.11
84387;BME280;74580;47.078;15.446;2024-03-22T08:03:29;97839.13;;;21.63;33.43
84387;BME280;74580;47.078;15.446;2024-03-22T08:05:54;97830.19;;;21.62;33.00
84387;BME280;74580;47.078;15.446;2024-03-22T08:08:20;97829.84;;;21.64;33.01
84387;BME280;74580;47.078;15.446;2024-03-22T08:10:45;97827.91;;;21.64;33.03
84387;BME280;74580;47.078;15.446;2024-03-22T08:13:10;97829.84;;;21.64;33.24
84387;BME280;74580;47.078;15.446;2024-03-22T08:15:36;97827.13;;;21.64;33.18
84387;BME280;74580;47.078;15.446;2024-03-22T08:18:01;97832.22;;;21.65;33.19
84387;BME280;74580;47.078;15.446;2024-03-22T08:20:27;97825.19;;;21.64;33.12
84387;BME280;74580;47.078;15.446;2024-03-22T08:22:53;97825.19;;;21.64;32.96
84387;BME280;74580;47.078;15.446;2024-03-22T08:25:19;97825.97;;;21.65;32.90
84387;BME280;74580;47.078;15.446;2024-03-22T08:27:46;97828.69;;;21.65;33.02
84387;BME280;74580;47.078;15.446;2024-03-22T08:30:12;97827.13;;;21.64;33.13
84387;BME280;74580;47.078;15.446;2024-03-22T08:32:37;97822.13;;;21.66;33.16
84387;BME280;74580;47.078;15.446;2024-03-22T08:35:03;97820.53;;;21.65;33.08
84387;BME280;74580;47.078;15.446;2024-03-22T08:37:29;97825.97;;;21.65;33.39
84387;BME280;74580;47.078;15.446;2024-03-22T08:39:55;97822.47;;;21.64;33.08
84387;BME280;74580;47.078;15.446;2024-03-22T08:42:20;97824.06;;;21.65;32.71
84387;BME280;74580;47.078;15.446;2024-03-22T08:44:45;97827.56;;;21.66;33.08
84387;BME280;74580;47.078;15.446;2024-03-22T08:47:11;97824.84;;;21.66;32.89
84387;BME280;74580;47.078;15.446;2024-03-22T08:49:37;97820.19;;;21.66;33.18
84387;BME280;74580;47.078;15.446;2024-03-22T08:52:02;97814.31;;;21.64;33.16
84387;BME280;74580;47.078;15.446;2024-03-22T08:54:27;97811.25;;;21.66;33.24
84387;BME280;74580;47.078;15.446;2024-03-22T08:56:53;97807.75;;;21.65;33.29
84387;BME280;74580;47.078;15.446;2024-03-22T08:59:19;97812.38;;;21.65;33.32
84387;BME280;74580;47.078;15.446;2024-03-22T09:01:44;97802.31;;;21.65;33.14
84387;BME280;74580;47.078;15.446;2024-03-22T09:04:09;97799.16;;;21.63;33.18
84387;BME280;74580;47.078;15.446;2024-03-22T09:06:35;97791.34;;;21.62;33.38
84387;BME280;74580;47.078;15.446;2024-03-22T09:09:00;97797.19;;;21.64;33.31
84387;BME280;74580;47.078;15.446;2024-03-22T09:11:25;97791.78;;;21.64;33.18
84387;BME280;74580;47.078;15.446;2024-03-22T09:13:52;97790.63;;;21.65;33.24
84387;BME280;74580;47.078;15.446;2024-03-22T09:16:17;97795.63;;;21.63;32.97
84387;BME280;74580;47.078;15.446;2024-03-22T09:18:43;97787.47;;;21.63;33.37
84387;BME280;74580;47.078;15.446;2024-03-22T09:21:08;97787.91;;;21.65;33.33
84387;BME280;74580;47.078;15.446;2024-03-22T09:23:35;97778.53;;;21.62;33.37
84387;BME280;74580;47.078;15.446;2024-03-22T09:26:01;97768.44;;;21.63;33.14
84387;BME280;74580;47.078;15.446;2024-03-22T09:28:26;97764.91;;;21.62;33.11
84387;BME280;74580;47.078;15.446;2024-03-22T09:30:52;97775.03;;;21.62;33.30
84387;BME280;74580;47.078;15.446;2024-03-22T09:33:17;97764.50;;;21.60;33.26
84387;BME280;74580;47.078;15.446;2024-03-22T09:35:43;97771.84;;;21.60;33.43
84387;BME280;74580;47.078;15.446;2024-03-22T09:38:08;97773.81;;;21.59;33.28
84387;BME280;74580;47.078;15.446;2024-03-22T09:40:34;97774.56;;;21.60;33.20
84387;BME280;74580;47.078;15.446;2024-03-22T09:43:02;97771.84;;;21.60;33.49
84387;BME280;74580;47.078;15.446;2024-03-22T09:45:31;97772.66;;;21.60;33.36
84387;BME280;74580;47.078;15.446;2024-03-22T09:47:57;97776.16;;;21.61;33.27
84387;BME280;74580;47.078;15.446;2024-03-22T09:50:23;97766.88;;;21.62;33.25
84387;BME280;74580;47.078;15.446;2024-03-22T09:52:48;97766.88;;;21.62;33.47
84387;BME280;74580;47.078;15.446;2024-03-22T09:55:20;97760.63;;;21.61;33.55
84387;BME280;74580;47.078;15.446;2024-03-22T09:57:47;97757.91;;;21.61;33.27
84387;BME280;74580;47.078;15.446;2024-03-22T10:00:17;97753.28;;;21.62;33.30
84387;BME280;74580;47.078;15.446;2024-03-22T10:02:43;97750.09;;;21.60;33.43
84387;BME280;74580;47.078;15.446;2024-03-22T10:05:09;97751.69;;;21.61;33.44
84387;BME280;74580;47.078;15.446;2024-03-22T10:07:34;97750.09;;;21.60;33.49
84387;BME280;74580;47.078;15.446;2024-03-22T10:10:00;97748.19;;;21.60;33.50
84387;BME280;74580;47.078;15.446;2024-03-22T10:12:25;97741.59;;;21.61;33.61
84387;BME280;74580;47.078;15.446;2024-03-22T10:14:53;97746.25;;;21.61;33.35
84387;BME280;74580;47.078;15.446;2024-03-22T10:17:18;97741.59;;;21.61;33.44
84387;BME280;74580;47.078;15.446;2024-03-22T10:19:43;97736.97;;;21.62;33.30
84387;BME280;74580;47.078;15.446;2024-03-22T10:22:09;97727.19;;;21.61;33.57
84387;BME280;74580;47.078;15.446;2024-03-22T10:24:34;97728.00;;;21.61;33.47
84387;BME280;74580;47.078;15.446;2024-03-22T10:27:00;97722.56;;;21.61;33.61
84387;BME280;74580;47.078;15.446;2024-03-22T10:29:26;97709.31;;;21.60;33.30
84387;BME280;74580;47.078;15.446;2024-03-22T10:31:53;97719.44;;;21.59;33.63
84387;BME280;74580;47.078;15.446;2024-03-22T10:34:20;97713.63;;;21.61;33.44
84387;BME280;74580;47.078;15.446;2024-03-22T10:36:46;97712.03;;;21.60;33.70
84387;BME280;74580;47.078;15.446;2024-03-22T10:39:15;97709.31;;;21.60;33.67
84387;BME280;74580;47.078;15.446;2024-03-22T10:41:42;97704.69;;;21.60;33.30
84387;BME280;74580;47.078;15.446;2024-03-22T10:44:07;97709.78;;;21.62;33.42
84387;BME280;74580;47.078;15.446;2024-03-22T10:46:34;97704.34;;;21.62;33.38
84387;BME280;74580;47.078;15.446;2024-03-22T10:49:02;97699.31;;;21.64;33.43
84387;BME280;74580;47.078;15.446;2024-03-22T10:51:30;97696.25;;;21.65;33.50
84387;BME280;74580;47.078;15.446;2024-03-22T10:53:56;97685.03;;;21.67;33.34
84387;BME280;74580;47.078;15.446;2024-03-22T10:56:23;97685.47;;;21.69;33.55
84387;BME280;74580;47.078;15.446;2024-03-22T10:58:49;97676.19;;;21.70;33.34
84387;BME280;74580;47.078;15.446;2024-03-22T11:01:25;97678.59;;;21.71;33.54
84387;BME280;74580;47.078;15.446;2024-03-22T11:03:51;97683.63;;;21.73;33.41
84387;BME280;74580;47.078;15.446;2024-03-22T11:06:19;97666.22;;;21.74;33.37
84387;BME280;74580;47.078;15.446;2024-03-22T11:08:50;97672.00;;;21.72;33.29
84387;BME280;74580;47.078;15.446;2024-03-22T11:11:18;97661.88;;;21.73;33.35
84387;BME280;74580;47.078;15.446;2024-03-22T11:13:47;97665.41;;;21.73;33.29
84387;BME280;74580;47.078;15.446;2024-03-22T11:16:14;97655.69;;;21.72;33.17
84387;BME280;74580;47.078;15.446;2024-03-22T11:18:39;97658.03;;;21.74;33.38
84387;BME280;74580;47.078;15.446;2024-03-22T11:21:05;97649.09;;;21.73;33.25
84387;BME280;74580;47.078;15.446;2024-03-22T11:23:33;97646.03;;;21.75;33.24
84387;BME280;74580;47.078;15.446;2024-03-22T11:25:59;97643.31;;;21.75;33.54
84387;BME280;74580;47.078;15.446;2024-03-22T11:28:24;97638.28;;;21.77;33.39
84387;BME280;74580;47.078;15.446;2024-03-22T11:30:49;97636.72;;;21.76;33.76
84387;BME280;74580;47.078;15.446;2024-03-22T11:33:15;97637.88;;;21.75;33.60
84387;BME280;74580;47.078;15.446;2024-03-22T11:35:40;97634.34;;;21.74;33.72
84387;BME280;74580;47.078;15.446;2024-03-22T11:38:07;97631.63;;;21.74;33.47
84387;BME280;74580;47.078;15.446;2024-03-22T11:40:33;97623.13;;;21.76;33.45
84387;BME280;74580;47.078;15.446;2024-03-22T11:42:59;97626.97;;;21.75;33.36
84387;BME280;74580;47.078;15.446;2024-03-22T11:45:26;97619.25;;;21.77;33.49
84387;BME280;74580;47.078;15.446;2024-03-22T11:47:52;97613.81;;;21.77;33.39
84387;BME280;74580;47.078;15.446;2024-03-22T11:50:18;97611.47;;;21.75;33.58
84387;BME280;74580;47.078;15.446;2024-03-22T11:52:44;97613.81;;;21.77;33.55
84387;BME280;74580;47.078;15.446;2024-03-22T11:55:14;97609.16;;;21.77;33.54
84387;BME280;74580;47.078;15.446;2024-03-22T11:57:40;97601.81;;;21.78;33.39
84387;BME280;74580;47.078;15.446;2024-03-22T12:00:07;97600.66;;;21.79;33.68
84387;BME280;74580;47.078;15.446;2024-03-22T12:02:38;97593.66;;;21.78;33.59
84387;BME280;74580;47.078;15.446;2024-03-22T12:05:04;97588.69;;;21.83;33.53
84387;BME280;74580;47.078;15.446;2024-03-22T12:07:30;97582.13;;;21.84;33.31
84387;BME280;74580;47.078;15.446;2024-03-22T12:09:56;97581.84;;;21.89;33.47
84387;BME280;74580;47.078;15.446;2024-03-22T12:12:22;97576.84;;;21.91;33.36
84387;BME280;74580;47.078;15.446;2024-03-22T12:14:48;97570.69;;;21.94;33.29
84387;BME280;74580;47.078;15.446;2024-03-22T12:17:15;97578.84;;;21.94;33.29
84387;BME280;74580;47.078;15.446;2024-03-22T12:19:41;97580.78;;;21.94;33.33
84387;BME280;74580;47.078;15.446;2024-03-22T12:22:06;97575.25;;;21.90;33.39
84387;BME280;74580;47.078;15.446;2024-03-22T12:24:32;97564.72;;;21.89;33.46
84387;BME280;74580;47.078;15.446;2024-03-22T12:26:57;97568.25;;;21.89;33.49
84387;BME280;74580;47.078;15.446;2024-03-22T12:29:23;97566.75;;;21.92;33.56
84387;BME280;74580;47.078;15.446;2024-03-22T12:31:49;97563.69;;;21.93;33.35
84387;BME280;74580;47.078;15.446;2024-03-22T12:34:14;97561.03;;;21.97;33.69
84387;BME280;74580;47.078;15.446;2024-03-22T12:36:40;97557.94;;;21.98;33.61
84387;BME280;74580;47.078;15.446;2024-03-22T12:39:05;97556.44;;;22.01;33.51
84387;BME280;74580;47.078;15.446;2024-03-22T12:41:32;97554.16;;;22.03;33.33
84387;BME280;74580;47.078;15.446;2024-03-22T12:43:58;97550.66;;;22.02;33.46